Centennial, WY (82055)

9:26 AM MDT on April 25, 2017 (GMT -0600)
MCINW4 | | Change Station
Active Advisory: Winter Weather Advisory

Elev 9571 ft 41.24 °N, 106.23 °W | Updated 19 hours ago

Partly Cloudy
Partly Cloudy
42.0 °F
Feels Like 42 °F
N
-
Wind Variable Wind from North

Today
High -- | Low -- °F
--% Chance of Precip.
Yesterday
High -- | Low -- °F
Precip. -- in
Pressure 29.46 in
Visibility 10.0 miles
Clouds Clear
Windchill 42 °F
Dew Point 29 °F
Humidity 61%
Rainfall 0.11 in
Snow Depth Not available.
6:09 AM 7:55 PM
Waning Crescent, 1% visible
METAR KLAR 251453Z AUTO 25019KT 10SM CLR 02/M04 A2959 RMK AO2 PK WND 26026/1442 SLP976 T00171039
Pressure 29.46 in
Visibility 10.0 miles
Clouds Clear
Windchill 42 °F
Dew Point 29 °F
Humidity 61%
Rainfall 0.11 in
Snow Depth Not available.
6:09 AM 7:55 PM
Waning Crescent, 1% visible
METAR KLAR 251453Z AUTO 25019KT 10SM CLR 02/M04 A2959 RMK AO2 PK WND 26026/1442 SLP976 T00171039

Get Your Daily Forecast Email!

Thanks for signing up!

Be on the lookout for a verification email in your inbox.

You'll start receiving severe weather alerts in your inbox..

×

10-Day Weather Forecast

Almanac

Astronomy

Apr. 25, 2017 Rise Set
Actual Time
Civil Twilight
Nautical Twilight
Astronomical Twilight
Moon
Length of Visible Light
Length of Day
Tomorrow will be .
, % of the Moon is Illuminated

Today's Extremes

State Highs State Lows

Community

WunderPhotos

WunderBlog® & News

Nearby

Air Quality

  Air Quality AQ Index Pollutant
Not available.

Snow Depth

Station Depth Elevation

Earthquake Activity

City Distance Mag. Time & Date
Minimum magnitude displayed is 2.5.

Coastal Water Temperatures

Place Temperature

Stations

Nearby Weather Stations

Station Location Temp. Windchill Dew Point Humidity Wind Precip. Elev Updated Type
                   

Watches & Warnings

Winter Weather Advisory
Issued: 2:30 AM MDT Apr. 25, 2017 – National Weather Service

... Winter Weather Advisory remains in effect until 6 PM MDT this
evening...

* timing... snow will increase in coverage, especially this
afternoon.

* Total snow accumulations... 6 to 8 inches with up to 10 inches
at the higher peaks.

* Winds/visibility... visibility will most likely be less than a
quarter of a mile at times this afternoon. Winds will be west at
15 to 30 mph this morning, becoming northwest and then north
this afternoon. Gusts up to 45 mph.

* Impacts... hazardous travel likely due to snow covered roads
and low visibility along the higher elevations of Interstate
80 west of Cheyenne. Those planning outdoor recreation in the
mountains should be prepared for snowy conditions and low
visibility at times.

Precautionary/preparedness actions...

A Winter Weather Advisory for snow means that periods of snow
will cause travel difficulties. Be prepared for snow covered
roads and limited visibilities... and use caution while driving.



Rubin